createdAt,value
2022-12-11T00:00:50.605Z,51.65
2022-12-11T00:02:52.407Z,49.30
2022-12-11T00:04:54.146Z,41.15
2022-12-11T00:06:56.232Z,47.20
2022-12-11T00:08:58.019Z,46.97
2022-12-11T00:10:59.937Z,48.65
2022-12-11T00:13:01.788Z,54.97
2022-12-11T00:15:03.844Z,45.03
2022-12-11T00:17:05.571Z,43.40
2022-12-11T00:19:08.207Z,45.40
2022-12-11T00:21:13.477Z,50.55
2022-12-11T00:23:15.252Z,46.63
2022-12-11T00:25:17.189Z,45.85
2022-12-11T00:27:19.177Z,63.38
2022-12-11T00:29:20.829Z,45.13
2022-12-11T00:31:23.602Z,42.88
2022-12-11T00:33:27.375Z,47.72
2022-12-11T00:35:29.074Z,46.63
2022-12-11T00:37:30.911Z,45.28
2022-12-11T00:39:32.729Z,45.30
2022-12-11T00:41:34.604Z,43.53
2022-12-11T00:43:36.591Z,43.65
2022-12-11T00:45:40.689Z,40.92
2022-12-11T00:47:42.370Z,40.63
2022-12-11T00:49:49.560Z,45.97
2022-12-11T00:51:51.841Z,45.47
2022-12-11T00:53:53.584Z,48.33
2022-12-11T00:55:55.367Z,105.80
2022-12-11T00:57:57.969Z,94.88
2022-12-11T00:59:59.685Z,48.15
2022-12-11T01:02:01.420Z,56.65
2022-12-11T01:04:03.417Z,58.10
2022-12-11T01:06:06.056Z,50.58
2022-12-11T01:08:07.972Z,174.90
2022-12-11T01:10:14.984Z,379.17
2022-12-11T01:12:16.720Z,50.75
2022-12-11T01:14:18.879Z,47.53
2022-12-11T01:16:20.871Z,48.60
2022-12-11T01:18:22.790Z,60.63
2022-12-11T01:20:26.784Z,43.05
2022-12-11T01:22:28.900Z,44.30
2022-12-11T01:24:30.599Z,42.38
2022-12-11T01:26:32.322Z,52.20
2022-12-11T01:28:34.264Z,36.55
2022-12-11T01:30:37.028Z,39.15
2022-12-11T01:32:38.872Z,39.15
2022-12-11T01:34:40.685Z,48.58
2022-12-11T01:36:42.395Z,41.72
2022-12-11T01:38:45.553Z,46.65
2022-12-11T01:40:51.575Z,41.10
2022-12-11T01:42:53.266Z,44.20
2022-12-11T01:45:16.852Z,41.92
2022-12-11T01:47:18.712Z,42.05
2022-12-11T01:49:23.281Z,41.25
2022-12-11T01:51:25.276Z,42.25
2022-12-11T01:53:41.161Z,43.20
2022-12-11T01:55:43.282Z,47.42
2022-12-11T01:57:48.889Z,42.63
2022-12-11T01:59:50.704Z,40.53
2022-12-11T02:02:04.710Z,40.45
2022-12-11T02:04:08.800Z,45.30
2022-12-11T02:06:31.004Z,49.45
2022-12-11T02:08:32.788Z,39.97
2022-12-11T02:10:49.815Z,44.53
2022-12-11T02:12:59.523Z,61.58
2022-12-11T02:15:13.518Z,43.85
2022-12-11T02:17:36.531Z,48.25
2022-12-11T02:19:58.096Z,56.28
2022-12-11T02:22:07.881Z,74.57
2022-12-11T02:24:46.584Z,47.72
2022-12-11T02:27:19.893Z,48.17
2022-12-11T02:29:31.131Z,53.08
2022-12-11T02:31:47.795Z,53.92
2022-12-11T02:33:53.690Z,41.85
2022-12-11T02:35:56.347Z,56.38
2022-12-11T02:38:03.200Z,46.10
2022-12-11T02:40:11.243Z,47.97
2022-12-11T02:42:15.023Z,44.03
2022-12-11T02:44:22.367Z,42.08
2022-12-11T02:46:26.143Z,54.70
2022-12-11T02:48:27.879Z,42.95
2022-12-11T02:50:30.610Z,44.33
2022-12-11T02:52:33.955Z,45.65
2022-12-11T02:54:39.697Z,45.30
2022-12-11T02:57:03.061Z,42.75
2022-12-11T02:59:14.088Z,50.23
2022-12-11T03:01:16.448Z,54.63
2022-12-11T03:03:18.602Z,45.35
2022-12-11T03:05:20.666Z,46.60
2022-12-11T03:07:27.461Z,37.10
2022-12-11T03:09:29.391Z,39.58
2022-12-11T03:11:31.224Z,41.88
2022-12-11T03:13:33.007Z,46.28
2022-12-11T03:16:32.175Z,39.85
2022-12-11T03:18:56.561Z,78.32
2022-12-11T03:23:28.378Z,43.75
2022-12-11T03:25:54.223Z,51.75
2022-12-11T03:27:58.430Z,49.80
2022-12-11T03:30:12.973Z,74.45
2022-12-11T03:32:19.596Z,61.90
2022-12-11T03:34:29.911Z,42.83
2022-12-11T03:36:36.646Z,58.92
2022-12-11T03:38:54.467Z,47.38
2022-12-11T03:41:00.980Z,59.13
2022-12-11T03:43:05.410Z,114.25
2022-12-11T03:45:08.367Z,51.50
2022-12-11T03:47:11.391Z,39.67
2022-12-11T03:49:21.378Z,42.03
2022-12-11T03:51:23.939Z,57.65
2022-12-11T03:53:27.709Z,40.28
2022-12-11T03:55:32.584Z,41.65
2022-12-11T03:57:37.727Z,37.08
2022-12-11T03:59:39.830Z,91.68
2022-12-11T04:01:41.661Z,41.45
2022-12-11T04:03:43.473Z,57.92
2022-12-11T04:05:50.565Z,44.00
2022-12-11T04:07:52.413Z,44.00
2022-12-11T04:09:54.889Z,37.42
2022-12-11T04:11:56.575Z,40.08
2022-12-11T04:13:58.301Z,37.70
2022-12-11T04:16:00.002Z,41.88
2022-12-11T04:18:01.706Z,39.42
2022-12-11T04:20:05.501Z,42.72
2022-12-11T04:22:07.239Z,54.47
2022-12-11T04:24:09.189Z,45.83
2022-12-11T04:26:14.917Z,39.30
2022-12-11T04:28:16.622Z,50.83
2022-12-11T04:30:21.887Z,43.95
2022-12-11T04:32:23.711Z,47.38
2022-12-11T04:34:25.510Z,59.08
2022-12-11T04:36:27.259Z,45.25
2022-12-11T04:38:29.141Z,39.97
2022-12-11T04:40:30.876Z,40.05
2022-12-11T04:42:32.796Z,41.97
2022-12-11T04:44:34.795Z,41.38
2022-12-11T04:46:36.572Z,44.05
2022-12-11T04:48:39.187Z,47.70
2022-12-11T04:50:41.058Z,45.20
2022-12-11T04:52:43.390Z,46.65
2022-12-11T04:54:45.167Z,42.65
2022-12-11T04:56:47.041Z,49.00
2022-12-11T04:58:48.731Z,53.67
2022-12-11T05:00:50.836Z,55.67
2022-12-11T05:02:52.831Z,53.35
2022-12-11T05:04:54.626Z,45.35
2022-12-11T05:06:56.303Z,42.72
2022-12-11T05:08:58.141Z,45.17
2022-12-11T05:11:02.835Z,43.95
2022-12-11T05:13:04.690Z,46.70
2022-12-11T05:15:07.056Z,47.90
2022-12-11T05:17:08.722Z,44.70
2022-12-11T05:19:10.756Z,47.83
2022-12-11T05:21:14.726Z,47.70
2022-12-11T05:23:16.392Z,66.15
2022-12-11T05:25:18.289Z,48.60
2022-12-11T05:27:20.090Z,43.17
2022-12-11T05:29:21.770Z,44.13
2022-12-11T05:31:26.724Z,51.97
2022-12-11T05:33:30.634Z,50.15
2022-12-11T05:35:32.325Z,42.63
2022-12-11T05:37:34.483Z,56.97
2022-12-11T05:39:36.469Z,75.63
2022-12-11T05:41:38.393Z,78.55
2022-12-11T05:43:40.238Z,85.35
2022-12-11T05:45:42.054Z,48.70
2022-12-11T05:47:43.747Z,48.20
2022-12-11T05:49:45.874Z,48.70
2022-12-11T05:51:47.921Z,49.35
2022-12-11T05:53:51.154Z,47.17
2022-12-11T05:55:53.003Z,48.63
2022-12-11T05:57:54.751Z,52.65
2022-12-11T05:59:56.455Z,47.70
2022-12-11T06:01:58.355Z,49.67
2022-12-11T06:04:00.930Z,48.53
2022-12-11T06:06:04.600Z,44.72
2022-12-11T06:08:06.707Z,50.83
2022-12-11T06:10:09.117Z,58.30
2022-12-11T06:12:10.820Z,130.45
2022-12-11T06:14:12.586Z,90.85
2022-12-11T06:16:14.896Z,101.85
2022-12-11T06:18:16.616Z,55.78
2022-12-11T06:20:18.430Z,118.93
2022-12-11T06:22:20.387Z,61.83
2022-12-11T06:24:22.103Z,78.20
2022-12-11T06:26:24.312Z,80.10
2022-12-11T06:28:26.249Z,44.42
2022-12-11T06:30:37.389Z,78.30
2022-12-11T06:32:41.092Z,57.73
2022-12-11T06:34:42.875Z,54.25
2022-12-11T06:36:44.554Z,63.97
2022-12-11T06:38:47.214Z,49.95
2022-12-11T06:40:59.830Z,48.87
2022-12-11T06:43:01.554Z,46.28
2022-12-11T06:45:04.187Z,47.75
2022-12-11T06:47:05.960Z,41.87
2022-12-11T06:49:07.669Z,47.05
2022-12-11T06:51:13.561Z,39.05
2022-12-11T06:53:15.643Z,48.00
2022-12-11T06:55:17.370Z,47.30
2022-12-11T06:57:19.689Z,50.72
2022-12-11T06:59:21.571Z,48.53
2022-12-11T07:01:26.292Z,44.38
2022-12-11T07:03:28.891Z,45.17
2022-12-11T07:05:32.182Z,45.53
2022-12-11T07:07:33.888Z,62.05
2022-12-11T07:09:38.275Z,46.90
2022-12-11T07:11:40.131Z,51.53
2022-12-11T07:13:42.297Z,55.55
2022-12-11T07:15:44.133Z,63.75
2022-12-11T07:17:45.990Z,58.58
2022-12-11T07:19:47.870Z,51.95
2022-12-11T07:21:49.545Z,69.53
2022-12-11T07:23:51.385Z,73.82
2022-12-11T07:25:53.122Z,61.13
2022-12-11T07:27:54.849Z,66.97
2022-12-11T07:29:56.622Z,57.50
2022-12-11T07:31:58.476Z,73.10
2022-12-11T07:34:02.509Z,162.77
2022-12-11T07:36:06.620Z,90.32
2022-12-11T07:38:08.739Z,117.28
2022-12-11T07:40:11.303Z,106.18
2022-12-11T07:42:12.985Z,68.00
2022-12-11T07:44:15.861Z,72.75
2022-12-11T07:46:20.966Z,63.50
2022-12-11T07:48:22.953Z,60.13
2022-12-11T07:50:25.011Z,61.85
2022-12-11T07:52:26.711Z,65.70
2022-12-11T07:54:29.000Z,54.10
2022-12-11T07:56:31.411Z,54.05
2022-12-11T07:58:33.117Z,57.35
2022-12-11T08:00:35.026Z,61.97
2022-12-11T08:02:37.871Z,51.72
2022-12-11T08:04:39.635Z,58.55
2022-12-11T08:06:42.652Z,55.35
2022-12-11T08:08:44.955Z,58.67
2022-12-11T08:10:46.682Z,54.85
2022-12-11T08:12:48.507Z,59.97
2022-12-11T08:14:50.356Z,73.40
2022-12-11T08:16:52.099Z,80.05
2022-12-11T08:18:53.789Z,82.32
2022-12-11T08:20:55.563Z,81.72
2022-12-11T08:22:59.312Z,57.13
2022-12-11T08:25:01.149Z,79.80
2022-12-11T08:27:03.129Z,60.50
2022-12-11T08:29:04.848Z,150.70
2022-12-11T08:31:08.960Z,138.10
2022-12-11T08:33:10.803Z,104.35
2022-12-11T08:35:12.615Z,68.25
2022-12-11T08:37:14.598Z,81.55
2022-12-11T08:39:16.570Z,85.38
2022-12-11T08:41:22.708Z,76.78
2022-12-11T08:43:24.771Z,70.13
2022-12-11T08:45:26.506Z,60.85
2022-12-11T08:47:28.227Z,100.13
2022-12-11T08:49:34.452Z,86.68
2022-12-11T08:51:36.557Z,60.55
2022-12-11T08:53:38.393Z,75.45
2022-12-11T08:55:40.194Z,73.72
2022-12-11T08:57:42.304Z,77.63
2022-12-11T08:59:44.007Z,75.88
2022-12-11T09:01:45.736Z,67.22
2022-12-11T09:03:48.128Z,71.80
2022-12-11T09:05:49.961Z,71.63
2022-12-11T09:07:51.707Z,65.97
2022-12-11T09:09:56.930Z,77.88
2022-12-11T09:11:58.671Z,71.47
2022-12-11T09:14:06.712Z,91.70
2022-12-11T09:16:15.380Z,137.93
2022-12-11T09:18:17.149Z,82.68
2022-12-11T09:20:18.955Z,75.35
2022-12-11T09:22:20.788Z,64.47
2022-12-11T09:24:22.459Z,60.35
2022-12-11T09:26:25.263Z,56.60
2022-12-11T09:28:26.980Z,53.55
2022-12-11T09:30:28.684Z,58.38
2022-12-11T09:32:30.418Z,68.70
2022-12-11T09:34:32.288Z,57.25
2022-12-11T09:36:34.760Z,76.93
2022-12-11T09:38:36.790Z,69.10
2022-12-11T09:40:42.624Z,62.30
2022-12-11T09:42:44.305Z,60.58
2022-12-11T09:44:56.046Z,63.80
2022-12-11T09:46:58.997Z,86.47
2022-12-11T09:49:03.454Z,59.50
2022-12-11T09:51:16.828Z,79.40
2022-12-11T09:53:34.446Z,55.13
2022-12-11T09:55:48.392Z,53.45
2022-12-11T09:58:11.047Z,67.63
2022-12-11T10:00:16.334Z,66.75
2022-12-11T10:02:35.242Z,62.38
2022-12-11T10:04:53.041Z,60.55
2022-12-11T10:07:21.798Z,70.50
2022-12-11T10:09:48.717Z,61.55
2022-12-11T10:12:04.255Z,63.53
2022-12-11T10:14:05.893Z,65.07
2022-12-11T10:16:18.377Z,64.20
2022-12-11T10:18:23.393Z,56.63
2022-12-11T10:20:29.876Z,61.95
2022-12-11T10:22:33.811Z,54.40
2022-12-11T10:29:35.025Z,47.00
2022-12-11T10:31:58.687Z,53.03
2022-12-11T10:34:22.961Z,51.55
2022-12-11T10:36:39.384Z,48.63
2022-12-11T10:38:44.437Z,52.28
2022-12-11T10:40:51.315Z,56.78
2022-12-11T10:42:54.335Z,51.00
2022-12-11T10:45:04.928Z,53.97
2022-12-11T10:47:11.587Z,54.78
2022-12-11T10:49:28.488Z,55.38
2022-12-11T10:51:33.151Z,51.63
2022-12-11T10:53:35.745Z,60.03
2022-12-11T10:55:44.932Z,54.30
2022-12-11T10:57:55.855Z,58.30
2022-12-11T10:59:58.634Z,64.97
2022-12-11T11:02:00.750Z,87.45
2022-12-11T11:04:33.625Z,100.95
2022-12-11T11:06:35.316Z,93.88
2022-12-11T11:08:47.004Z,96.32
2022-12-11T11:11:00.600Z,98.35
2022-12-11T11:13:02.760Z,86.20
2022-12-11T11:15:10.689Z,81.38
2022-12-11T11:17:17.827Z,80.43
2022-12-11T11:19:47.205Z,97.43
2022-12-11T11:21:56.461Z,94.03
2022-12-11T11:23:58.288Z,89.32
2022-12-11T11:26:02.708Z,76.40
2022-12-11T11:28:18.129Z,51.25
2022-12-11T11:30:26.564Z,67.30
2022-12-11T11:32:36.529Z,64.78
2022-12-11T11:34:38.234Z,61.97
2022-12-11T11:36:40.144Z,89.68
2022-12-11T11:38:50.447Z,172.65
2022-12-11T11:41:15.058Z,74.15
2022-12-11T11:43:23.015Z,118.18
2022-12-11T11:45:31.888Z,92.57
2022-12-11T11:47:55.742Z,140.18
2022-12-11T11:50:08.558Z,80.65
2022-12-11T11:52:24.556Z,67.18
2022-12-11T11:54:39.944Z,74.40
2022-12-11T11:56:42.500Z,65.82
2022-12-11T11:58:50.122Z,66.70
2022-12-11T12:00:54.612Z,72.10
2022-12-11T12:03:17.232Z,130.55
2022-12-11T12:05:27.059Z,150.45
2022-12-11T12:07:42.432Z,197.90
2022-12-11T12:10:08.782Z,234.13
2022-12-11T12:12:29.732Z,183.20
2022-12-11T12:14:52.471Z,209.88
2022-12-11T12:17:09.642Z,83.65
2022-12-11T12:19:47.162Z,138.63
2022-12-11T12:21:52.158Z,147.27
2022-12-11T12:24:03.335Z,129.07
2022-12-11T12:26:20.271Z,88.80
2022-12-11T12:28:38.324Z,108.32
2022-12-11T12:31:04.923Z,130.77
2022-12-11T12:33:23.167Z,104.10
2022-12-11T12:35:42.270Z,68.90
2022-12-11T12:38:46.974Z,84.93
2022-12-11T12:40:56.243Z,65.13
2022-12-11T12:43:23.841Z,85.68
2022-12-11T12:45:52.371Z,89.95
2022-12-11T12:47:54.228Z,117.38
2022-12-11T12:49:58.406Z,82.95
2022-12-11T12:52:01.208Z,73.82
2022-12-11T12:54:10.528Z,73.22
2022-12-11T12:56:14.859Z,93.28
2022-12-11T12:58:40.591Z,148.73
2022-12-11T13:00:43.820Z,199.63
2022-12-11T13:02:51.979Z,93.35
2022-12-11T13:05:06.179Z,105.32
2022-12-11T13:07:18.275Z,88.57
2022-12-11T13:09:24.334Z,155.43
2022-12-11T13:11:34.626Z,162.90
2022-12-11T13:13:40.160Z,241.30
2022-12-11T13:15:42.884Z,132.13
2022-12-11T13:17:44.757Z,332.40
2022-12-11T13:19:46.643Z,215.40
2022-12-11T13:22:18.051Z,76.93
2022-12-11T13:24:19.764Z,80.15
2022-12-11T13:26:31.791Z,93.47
2022-12-11T13:28:51.710Z,109.50
2022-12-11T13:31:02.071Z,107.88
2022-12-11T13:33:17.639Z,102.13
2022-12-11T13:35:19.405Z,131.43
2022-12-11T13:37:31.721Z,106.75
2022-12-11T13:39:37.748Z,107.00
2022-12-11T13:41:40.542Z,93.22
2022-12-11T13:43:45.654Z,90.53
2022-12-11T13:45:50.970Z,121.25
2022-12-11T13:47:52.907Z,68.80
2022-12-11T13:50:00.845Z,202.30
2022-12-11T13:52:03.178Z,90.60
2022-12-11T13:54:17.486Z,118.88
2022-12-11T13:56:22.129Z,89.00
2022-12-11T13:58:24.489Z,116.82
2022-12-11T14:00:31.285Z,117.70
2022-12-11T14:02:38.691Z,99.47
2022-12-11T14:04:40.943Z,97.90
2022-12-11T14:06:42.827Z,100.43
2022-12-11T14:08:45.500Z,89.53
2022-12-11T14:10:52.937Z,102.80
2022-12-11T14:13:17.902Z,78.30
2022-12-11T14:15:19.957Z,104.15
2022-12-11T14:17:31.440Z,82.95
2022-12-11T14:19:33.437Z,103.32
2022-12-11T14:21:36.932Z,82.68
2022-12-11T14:25:40.175Z,63.72
2022-12-11T14:27:48.132Z,112.55
2022-12-11T14:29:50.554Z,84.35
2022-12-11T14:31:53.582Z,67.97
2022-12-11T14:34:01.401Z,97.85
2022-12-11T14:36:04.573Z,149.13
2022-12-11T14:38:29.322Z,101.60
2022-12-11T14:40:44.066Z,75.65
2022-12-11T14:43:00.425Z,76.05
2022-12-11T14:45:05.644Z,88.57
2022-12-11T14:47:15.860Z,90.97
2022-12-11T14:49:35.979Z,124.38
2022-12-11T14:51:40.957Z,134.40
2022-12-11T14:53:47.273Z,113.28
2022-12-11T14:55:50.743Z,96.60
2022-12-11T14:59:57.868Z,92.05
2022-12-11T15:02:03.176Z,94.28
2022-12-11T15:04:29.540Z,89.10
2022-12-11T15:06:33.993Z,86.43
2022-12-11T15:08:38.561Z,85.75
2022-12-11T15:11:05.484Z,95.45
2022-12-11T15:13:09.237Z,102.38
2022-12-11T15:15:16.970Z,80.20
2022-12-11T15:17:19.886Z,70.95
2022-12-11T15:19:35.000Z,82.43
2022-12-11T15:21:38.019Z,135.60
2022-12-11T15:23:51.279Z,64.72
2022-12-11T15:25:55.962Z,100.53
2022-12-11T15:27:59.833Z,227.90
2022-12-11T15:30:02.119Z,254.35
2022-12-11T15:32:15.205Z,231.35
2022-12-11T15:34:23.802Z,286.27
2022-12-11T15:36:34.779Z,141.13
2022-12-11T15:38:38.991Z,164.00
2022-12-11T15:40:40.720Z,365.75
2022-12-11T15:42:42.914Z,310.55
2022-12-11T15:44:45.175Z,71.28
2022-12-11T15:46:46.938Z,78.55
2022-12-11T15:48:49.880Z,72.32
2022-12-11T15:50:52.089Z,106.28
2022-12-11T15:52:55.425Z,106.97
2022-12-11T15:54:57.098Z,54.83
2022-12-11T15:57:03.987Z,54.85
2022-12-11T15:59:06.297Z,61.90
2022-12-11T16:01:08.087Z,99.65
2022-12-11T16:03:12.405Z,64.03
2022-12-11T16:05:15.020Z,50.33
2022-12-11T16:07:20.148Z,49.93
2022-12-11T16:09:21.992Z,54.75
2022-12-11T16:11:23.752Z,58.92
2022-12-11T16:13:25.427Z,48.92
2022-12-11T16:15:27.507Z,54.88
2022-12-11T16:17:29.200Z,42.20
2022-12-11T16:19:30.887Z,70.78
2022-12-11T16:21:32.862Z,129.88
2022-12-11T16:23:34.539Z,178.25
2022-12-11T16:25:41.083Z,184.15
2022-12-11T16:27:42.922Z,113.72
2022-12-11T16:29:44.630Z,73.55
2022-12-11T16:31:46.369Z,58.83
2022-12-11T16:33:48.728Z,128.20
2022-12-11T16:35:50.399Z,89.88
2022-12-11T16:37:53.379Z,146.13
2022-12-11T16:39:55.390Z,98.05
2022-12-11T16:41:57.071Z,65.70
2022-12-11T16:44:01.419Z,87.82
2022-12-11T16:46:03.903Z,86.45
2022-12-11T16:48:05.859Z,85.22
2022-12-11T16:50:08.073Z,83.07
2022-12-11T16:52:10.052Z,127.03
2022-12-11T16:54:12.424Z,94.60
2022-12-11T16:56:14.447Z,117.68
2022-12-11T16:58:16.258Z,128.80
2022-12-11T17:00:18.168Z,95.07
2022-12-11T17:02:20.835Z,81.47
2022-12-11T17:04:22.732Z,100.32
2022-12-11T17:06:24.406Z,69.95
2022-12-11T17:08:26.212Z,77.07
2022-12-11T17:10:28.050Z,64.55
2022-12-11T17:12:30.518Z,77.28
2022-12-11T17:14:32.305Z,96.78
2022-12-11T17:16:34.553Z,87.07
2022-12-11T17:18:36.565Z,99.47
2022-12-11T17:20:43.450Z,95.65
2022-12-11T17:22:45.264Z,81.32
2022-12-11T17:24:47.039Z,76.22
2022-12-11T17:26:48.783Z,92.43
2022-12-11T17:28:50.706Z,104.72
2022-12-11T17:30:52.501Z,104.75
2022-12-11T17:32:54.215Z,104.72
2022-12-11T17:34:56.530Z,90.90
2022-12-11T17:36:58.239Z,73.10
2022-12-11T17:38:59.918Z,82.18
2022-12-11T17:41:06.748Z,82.57
2022-12-11T17:43:09.519Z,101.10
2022-12-11T17:45:11.650Z,112.40
2022-12-11T17:47:13.860Z,116.05
2022-12-11T17:49:15.598Z,129.85
2022-12-11T17:51:18.506Z,133.40
2022-12-11T17:53:22.035Z,128.50
2022-12-11T17:57:25.394Z,98.07
2022-12-11T17:59:27.291Z,98.82
2022-12-11T18:01:31.056Z,78.45
2022-12-11T18:03:32.905Z,104.88
2022-12-11T18:05:35.699Z,116.80
2022-12-11T18:07:37.911Z,107.85
2022-12-11T18:09:42.725Z,88.93
2022-12-11T18:11:44.645Z,64.13
2022-12-11T18:13:47.117Z,86.82
2022-12-11T18:16:03.431Z,47.80
2022-12-11T18:18:06.432Z,54.35
2022-12-11T18:20:11.462Z,45.80
2022-12-11T18:22:13.975Z,63.95
2022-12-11T18:24:15.909Z,47.85
2022-12-11T18:26:19.592Z,46.80
2022-12-11T18:28:21.446Z,50.25
2022-12-11T18:30:24.597Z,52.40
2022-12-11T18:32:26.363Z,56.05
2022-12-11T18:34:28.092Z,46.33
2022-12-11T18:36:30.079Z,46.97
2022-12-11T18:38:31.856Z,46.67
2022-12-11T18:40:33.586Z,43.50
2022-12-11T18:42:35.627Z,65.47
2022-12-11T18:44:37.340Z,85.95
2022-12-11T18:46:39.210Z,108.32
2022-12-11T18:48:42.170Z,134.48
2022-12-11T18:50:49.110Z,117.28
2022-12-11T18:52:55.655Z,70.40
2022-12-11T18:54:57.859Z,78.85
2022-12-11T18:56:59.687Z,104.25
2022-12-11T18:59:01.648Z,85.50
2022-12-11T19:01:29.853Z,221.10
2022-12-11T19:03:32.212Z,99.80
2022-12-11T19:05:35.312Z,55.88
2022-12-11T19:07:37.323Z,70.70
2022-12-11T19:09:42.416Z,63.05
2022-12-11T19:11:47.656Z,72.40
2022-12-11T19:13:50.725Z,70.63
2022-12-11T19:15:52.501Z,222.05
2022-12-11T19:17:54.281Z,132.30
2022-12-11T19:19:56.031Z,300.58
2022-12-11T19:21:57.734Z,118.25
2022-12-11T19:23:59.915Z,113.45
2022-12-11T19:26:01.882Z,144.80
2022-12-11T19:28:04.436Z,65.03
2022-12-11T19:30:06.699Z,61.90
2022-12-11T19:32:08.868Z,72.15
2022-12-11T19:34:10.649Z,76.03
2022-12-11T19:36:19.828Z,80.38
2022-12-11T19:38:21.846Z,59.47
2022-12-11T19:40:23.577Z,71.60
2022-12-11T19:42:26.630Z,54.45
2022-12-11T19:44:28.451Z,54.17
2022-12-11T19:46:30.198Z,63.40
2022-12-11T19:48:32.214Z,62.35
2022-12-11T19:50:36.204Z,51.95
2022-12-11T19:52:42.855Z,78.45
2022-12-11T19:54:47.640Z,64.10
2022-12-11T19:56:49.786Z,52.97
2022-12-11T19:58:52.113Z,45.13
2022-12-11T20:00:54.401Z,56.92
2022-12-11T20:02:59.252Z,39.08
2022-12-11T20:05:00.934Z,41.95
2022-12-11T20:07:02.705Z,49.55
2022-12-11T20:09:07.078Z,42.28
2022-12-11T20:11:15.837Z,43.20
2022-12-11T20:13:19.474Z,54.15
2022-12-11T20:15:21.277Z,39.72
2022-12-11T20:17:23.183Z,40.05
2022-12-11T20:19:24.899Z,60.65
2022-12-11T20:21:26.840Z,34.45
2022-12-11T20:23:28.786Z,38.83
2022-12-11T20:25:30.606Z,40.25
2022-12-11T20:27:32.453Z,35.90
2022-12-11T20:29:34.194Z,35.50
2022-12-11T20:31:36.968Z,38.45
2022-12-11T20:33:39.158Z,39.83
2022-12-11T20:35:41.214Z,39.25
2022-12-11T20:37:42.924Z,42.65
2022-12-11T20:39:44.767Z,50.33
2022-12-11T20:41:46.632Z,37.80
2022-12-11T20:43:48.848Z,42.20
2022-12-11T20:45:51.077Z,39.03
2022-12-11T20:47:52.942Z,37.17
2022-12-11T20:49:54.684Z,39.92
2022-12-11T20:51:56.420Z,115.15
2022-12-11T20:53:59.241Z,56.17
2022-12-11T20:56:02.124Z,56.58
2022-12-11T20:58:04.005Z,72.38
2022-12-11T21:00:06.415Z,63.95
2022-12-11T21:02:08.840Z,96.82
2022-12-11T21:04:11.111Z,165.65
2022-12-11T21:06:39.348Z,187.88
2022-12-11T21:08:41.059Z,160.98
2022-12-11T21:10:44.792Z,102.70
2022-12-11T21:12:46.512Z,121.15
2022-12-11T21:14:48.207Z,118.57
2022-12-11T21:16:50.387Z,59.55
2022-12-11T21:18:52.114Z,113.03
2022-12-11T21:20:56.875Z,97.95
2022-12-11T21:22:58.728Z,85.85
2022-12-11T21:25:00.432Z,82.57
2022-12-11T21:27:02.140Z,66.82
2022-12-11T21:29:04.056Z,68.05
2022-12-11T21:31:08.853Z,131.23
2022-12-11T21:33:10.737Z,77.03
2022-12-11T21:35:12.984Z,76.65
2022-12-11T21:37:14.948Z,113.40
2022-12-11T21:39:16.634Z,93.63
2022-12-11T21:41:21.792Z,194.43
2022-12-11T21:43:24.391Z,110.07
2022-12-11T21:45:59.329Z,113.43
2022-12-11T21:47:48.215Z,96.50
2022-12-11T21:49:49.939Z,88.30
2022-12-11T21:51:51.632Z,111.13
2022-12-11T21:53:53.686Z,94.53
2022-12-11T21:55:55.673Z,58.58
2022-12-11T21:57:57.396Z,34.90
2022-12-11T21:59:59.275Z,36.28
2022-12-11T22:02:01.232Z,43.47
2022-12-11T22:04:04.502Z,115.38
2022-12-11T22:06:06.417Z,111.40
2022-12-11T22:08:08.284Z,126.25
2022-12-11T22:10:10.437Z,84.50
2022-12-11T22:12:22.980Z,70.30
2022-12-11T22:14:24.843Z,66.63
2022-12-11T22:16:26.908Z,79.05
2022-12-11T22:18:28.665Z,95.18
2022-12-11T22:20:30.638Z,86.43
2022-12-11T22:22:32.753Z,104.50
2022-12-11T22:24:34.453Z,94.57
2022-12-11T22:26:36.264Z,110.80
2022-12-11T22:28:38.027Z,168.50
2022-12-11T22:30:39.822Z,71.75
2022-12-11T22:32:41.758Z,39.03
2022-12-11T22:34:43.547Z,108.03
2022-12-11T22:36:45.342Z,98.85
2022-12-11T22:38:47.703Z,84.25
2022-12-11T22:40:49.564Z,96.72
2022-12-11T22:42:54.811Z,80.63
2022-12-11T22:44:56.663Z,112.32
2022-12-11T22:46:58.383Z,60.80
2022-12-11T22:49:00.078Z,52.25
2022-12-11T22:51:05.588Z,93.32
2022-12-11T22:53:07.499Z,38.03
2022-12-11T22:55:09.460Z,64.20
2022-12-11T22:57:11.270Z,81.65
2022-12-11T22:59:13.539Z,44.55
2022-12-11T23:01:18.333Z,110.85
2022-12-11T23:03:20.332Z,46.58
2022-12-11T23:05:22.127Z,29.98
2022-12-11T23:07:23.971Z,41.78
2022-12-11T23:09:25.944Z,29.08
2022-12-11T23:11:34.082Z,30.38
2022-12-11T23:13:35.952Z,24.75
2022-12-11T23:15:37.648Z,27.08
2022-12-11T23:17:39.563Z,68.18
2022-12-11T23:19:41.688Z,48.75
2022-12-11T23:21:43.639Z,25.90
2022-12-11T23:23:45.763Z,25.45
2022-12-11T23:25:47.603Z,44.97
2022-12-11T23:27:49.601Z,34.55
2022-12-11T23:29:51.377Z,45.35
2022-12-11T23:31:53.422Z,46.05
2022-12-11T23:33:55.096Z,55.50
2022-12-11T23:35:57.998Z,32.10
2022-12-11T23:37:59.853Z,57.88
2022-12-11T23:40:01.534Z,53.88
2022-12-11T23:42:03.267Z,52.45
2022-12-11T23:44:05.278Z,38.60
2022-12-11T23:46:17.302Z,50.67
2022-12-11T23:48:19.190Z,31.20
2022-12-11T23:50:21.060Z,50.20
2022-12-11T23:52:22.752Z,54.13
2022-12-11T23:54:24.531Z,38.67
2022-12-11T23:56:29.320Z,33.60
2022-12-11T23:58:31.017Z,32.95
